sensor_id;sensor_type;location;lat;lon;timestamp;pressure;altitude;pressure_sealevel;temperature;humidity
16016;BME280;8112;53.592;10.184;2023-03-26T00:03:21;99938.69;;;6.90;100.00
16016;BME280;8112;53.592;10.184;2023-03-26T00:08:22;99943.28;;;6.87;100.00
16016;BME280;8112;53.592;10.184;2023-03-26T00:13:28;99948.59;;;6.85;100.00
16016;BME280;8112;53.592;10.184;2023-03-26T00:18:31;99967.50;;;6.90;100.00
16016;BME280;8112;53.592;10.184;2023-03-26T00:23:43;99968.69;;;6.84;100.00
16016;BME280;8112;53.592;10.184;2023-03-26T00:28:46;99972.56;;;6.93;100.00
16016;BME280;8112;53.592;10.184;2023-03-26T00:33:51;99986.09;;;6.85;100.00
16016;BME280;8112;53.592;10.184;2023-03-26T00:38:56;99988.47;;;6.90;100.00
16016;BME280;8112;53.592;10.184;2023-03-26T00:44:11;99992.13;;;6.88;100.00
16016;BME280;8112;53.592;10.184;2023-03-26T00:49:18;100001.38;;;6.93;100.00
16016;BME280;8112;53.592;10.184;2023-03-26T00:54:20;99986.28;;;6.82;100.00
16016;BME280;8112;53.592;10.184;2023-03-26T00:59:23;100003.53;;;6.87;100.00
16016;BME280;8112;53.592;10.184;2023-03-26T01:04:30;100013.31;;;6.83;100.00
16016;BME280;8112;53.592;10.184;2023-03-26T01:09:39;100025.91;;;6.76;100.00
16016;BME280;8112;53.592;10.184;2023-03-26T01:14:50;100019.03;;;6.74;100.00
16016;BME280;8112;53.592;10.184;2023-03-26T01:20:05;100020.06;;;6.71;100.00
16016;BME280;8112;53.592;10.184;2023-03-26T01:25:14;100028.16;;;6.66;100.00
16016;BME280;8112;53.592;10.184;2023-03-26T01:30:20;100034.94;;;6.70;100.00
16016;BME280;8112;53.592;10.184;2023-03-26T01:35:33;100048.94;;;6.69;100.00
16016;BME280;8112;53.592;10.184;2023-03-26T01:40:45;100046.22;;;6.55;100.00
16016;BME280;8112;53.592;10.184;2023-03-26T01:45:50;100054.97;;;6.38;100.00
16016;BME280;8112;53.592;10.184;2023-03-26T01:50:51;100039.47;;;6.17;100.00
16016;BME280;8112;53.592;10.184;2023-03-26T01:56:04;100056.56;;;6.07;100.00
16016;BME280;8112;53.592;10.184;2023-03-26T02:01:17;100062.06;;;6.01;100.00
16016;BME280;8112;53.592;10.184;2023-03-26T02:06:26;100053.38;;;6.00;100.00
16016;BME280;8112;53.592;10.184;2023-03-26T02:11:32;100051.91;;;5.94;100.00
16016;BME280;8112;53.592;10.184;2023-03-26T02:16:35;100061.16;;;5.84;100.00
16016;BME280;8112;53.592;10.184;2023-03-26T02:21:36;100058.75;;;5.79;100.00
16016;BME280;8112;53.592;10.184;2023-03-26T02:26:40;100060.44;;;5.80;100.00
16016;BME280;8112;53.592;10.184;2023-03-26T02:31:48;100062.06;;;5.83;100.00
16016;BME280;8112;53.592;10.184;2023-03-26T02:36:50;100055.88;;;5.85;100.00
16016;BME280;8112;53.592;10.184;2023-03-26T02:41:54;100060.78;;;5.92;100.00
16016;BME280;8112;53.592;10.184;2023-03-26T02:46:56;100056.31;;;5.94;100.00
16016;BME280;8112;53.592;10.184;2023-03-26T02:52:16;100064.41;;;6.07;100.00
16016;BME280;8112;53.592;10.184;2023-03-26T02:57:21;100066.56;;;6.16;100.00
16016;BME280;8112;53.592;10.184;2023-03-26T03:02:36;100061.50;;;6.13;100.00
16016;BME280;8112;53.592;10.184;2023-03-26T03:08:04;100056.72;;;6.04;100.00
16016;BME280;8112;53.592;10.184;2023-03-26T03:13:11;100063.38;;;5.92;100.00
16016;BME280;8112;53.592;10.184;2023-03-26T03:18:19;100061.75;;;5.71;100.00
16016;BME280;8112;53.592;10.184;2023-03-26T03:23:29;100055.97;;;5.65;100.00
16016;BME280;8112;53.592;10.184;2023-03-26T03:28:48;100062.44;;;5.57;100.00
16016;BME280;8112;53.592;10.184;2023-03-26T03:33:51;100054.75;;;5.54;100.00
16016;BME280;8112;53.592;10.184;2023-03-26T03:38:53;100046.31;;;5.49;100.00
16016;BME280;8112;53.592;10.184;2023-03-26T03:43:58;100050.88;;;5.44;100.00
16016;BME280;8112;53.592;10.184;2023-03-26T03:49:03;100057.03;;;5.43;100.00
16016;BME280;8112;53.592;10.184;2023-03-26T03:54:09;100049.97;;;5.45;100.00
16016;BME280;8112;53.592;10.184;2023-03-26T03:59:21;100059.44;;;5.48;100.00
16016;BME280;8112;53.592;10.184;2023-03-26T04:04:23;100053.34;;;5.47;100.00
16016;BME280;8112;53.592;10.184;2023-03-26T04:09:31;100055.03;;;5.48;100.00
16016;BME280;8112;53.592;10.184;2023-03-26T04:14:40;100054.38;;;5.45;100.00
16016;BME280;8112;53.592;10.184;2023-03-26T04:19:52;100057.53;;;5.51;100.00
16016;BME280;8112;53.592;10.184;2023-03-26T04:25:00;100040.59;;;5.59;100.00
16016;BME280;8112;53.592;10.184;2023-03-26T04:30:11;100038.91;;;5.57;100.00
16016;BME280;8112;53.592;10.184;2023-03-26T04:35:33;100037.66;;;5.47;100.00
16016;BME280;8112;53.592;10.184;2023-03-26T04:40:40;100032.19;;;5.34;100.00
16016;BME280;8112;53.592;10.184;2023-03-26T04:46:12;100022.59;;;5.35;100.00
16016;BME280;8112;53.592;10.184;2023-03-26T04:51:24;100018.53;;;5.29;100.00
16016;BME280;8112;53.592;10.184;2023-03-26T04:56:37;100024.16;;;5.39;100.00
16016;BME280;8112;53.592;10.184;2023-03-26T05:01:58;100017.44;;;5.33;100.00
16016;BME280;8112;53.592;10.184;2023-03-26T05:07:04;100008.50;;;5.20;100.00
16016;BME280;8112;53.592;10.184;2023-03-26T05:12:14;100011.59;;;4.91;100.00
16016;BME280;8112;53.592;10.184;2023-03-26T05:17:27;100009.78;;;4.74;100.00
16016;BME280;8112;53.592;10.184;2023-03-26T05:22:31;100011.81;;;4.67;100.00
16016;BME280;8112;53.592;10.184;2023-03-26T05:28:04;100014.66;;;4.82;100.00
16016;BME280;8112;53.592;10.184;2023-03-26T05:33:23;100012.84;;;5.02;100.00
16016;BME280;8112;53.592;10.184;2023-03-26T05:38:34;100013.97;;;5.15;100.00
16016;BME280;8112;53.592;10.184;2023-03-26T05:43:38;100016.84;;;5.28;100.00
16016;BME280;8112;53.592;10.184;2023-03-26T05:49:04;100012.81;;;5.21;100.00
16016;BME280;8112;53.592;10.184;2023-03-26T05:54:09;100014.34;;;5.07;100.00
16016;BME280;8112;53.592;10.184;2023-03-26T05:59:30;100019.84;;;5.01;100.00
16016;BME280;8112;53.592;10.184;2023-03-26T06:04:56;100036.72;;;5.13;100.00
16016;BME280;8112;53.592;10.184;2023-03-26T06:10:30;100030.31;;;5.19;100.00
16016;BME280;8112;53.592;10.184;2023-03-26T06:15:32;100028.00;;;5.32;100.00
16016;BME280;8112;53.592;10.184;2023-03-26T06:20:39;100036.47;;;5.54;100.00
16016;BME280;8112;53.592;10.184;2023-03-26T06:25:54;100033.38;;;5.64;100.00
16016;BME280;8112;53.592;10.184;2023-03-26T06:31:16;100041.06;;;5.84;100.00
16016;BME280;8112;53.592;10.184;2023-03-26T06:36:29;100034.63;;;5.92;100.00
16016;BME280;8112;53.592;10.184;2023-03-26T06:41:33;100041.88;;;6.04;100.00
16016;BME280;8112;53.592;10.184;2023-03-26T06:46:46;100049.69;;;6.22;100.00
16016;BME280;8112;53.592;10.184;2023-03-26T06:52:07;100052.47;;;6.19;100.00
16016;BME280;8112;53.592;10.184;2023-03-26T06:57:28;100042.16;;;6.16;100.00
16016;BME280;8112;53.592;10.184;2023-03-26T07:03:05;100043.75;;;6.36;100.00
16016;BME280;8112;53.592;10.184;2023-03-26T07:08:38;100043.75;;;6.36;100.00
16016;BME280;8112;53.592;10.184;2023-03-26T07:13:58;100040.19;;;6.37;100.00
16016;BME280;8112;53.592;10.184;2023-03-26T07:19:26;100013.47;;;6.48;100.00
16016;BME280;8112;53.592;10.184;2023-03-26T07:24:30;100014.81;;;6.55;100.00
16016;BME280;8112;53.592;10.184;2023-03-26T07:29:45;100012.94;;;6.57;100.00
16016;BME280;8112;53.592;10.184;2023-03-26T07:35:13;99999.03;;;6.40;100.00
16016;BME280;8112;53.592;10.184;2023-03-26T07:40:50;100004.03;;;6.61;100.00
16016;BME280;8112;53.592;10.184;2023-03-26T07:46:13;99993.78;;;6.40;100.00
16016;BME280;8112;53.592;10.184;2023-03-26T07:51:26;99996.06;;;6.47;100.00
16016;BME280;8112;53.592;10.184;2023-03-26T07:56:50;99979.34;;;6.65;100.00
16016;BME280;8112;53.592;10.184;2023-03-26T08:02:38;99985.25;;;6.85;100.00
16016;BME280;8112;53.592;10.184;2023-03-26T08:08:05;99992.09;;;7.04;100.00
16016;BME280;8112;53.592;10.184;2023-03-26T08:13:23;99984.59;;;6.97;100.00
16016;BME280;8112;53.592;10.184;2023-03-26T08:18:40;99993.59;;;7.08;100.00
16016;BME280;8112;53.592;10.184;2023-03-26T08:23:54;99986.06;;;7.34;100.00
16016;BME280;8112;53.592;10.184;2023-03-26T08:29:07;99990.44;;;7.64;100.00
16016;BME280;8112;53.592;10.184;2023-03-26T08:34:12;99983.59;;;7.76;100.00
16016;BME280;8112;53.592;10.184;2023-03-26T08:39:13;99996.56;;;7.79;100.00
16016;BME280;8112;53.592;10.184;2023-03-26T08:50:22;99989.75;;;8.20;100.00
16016;BME280;8112;53.592;10.184;2023-03-26T08:55:48;99994.06;;;7.92;100.00
16016;BME280;8112;53.592;10.184;2023-03-26T09:01:11;99986.13;;;7.63;100.00
16016;BME280;8112;53.592;10.184;2023-03-26T09:06:46;99979.78;;;7.81;100.00
16016;BME280;8112;53.592;10.184;2023-03-26T09:12:15;99981.69;;;8.52;100.00
16016;BME280;8112;53.592;10.184;2023-03-26T09:17:38;99992.28;;;8.21;100.00
16016;BME280;8112;53.592;10.184;2023-03-26T09:29:05;99976.63;;;7.91;100.00
16016;BME280;8112;53.592;10.184;2023-03-26T09:34:26;99972.59;;;8.28;100.00
16016;BME280;8112;53.592;10.184;2023-03-26T09:39:35;99981.34;;;8.86;100.00
16016;BME280;8112;53.592;10.184;2023-03-26T09:45:06;99978.88;;;10.04;100.00
16016;BME280;8112;53.592;10.184;2023-03-26T09:50:41;99978.34;;;10.11;100.00
16016;BME280;8112;53.592;10.184;2023-03-26T09:55:56;99985.31;;;9.46;100.00
16016;BME280;8112;53.592;10.184;2023-03-26T10:01:09;99997.06;;;8.58;100.00
16016;BME280;8112;53.592;10.184;2023-03-26T10:06:35;100000.97;;;8.22;100.00
16016;BME280;8112;53.592;10.184;2023-03-26T10:12:14;100001.53;;;8.85;100.00
16016;BME280;8112;53.592;10.184;2023-03-26T10:17:32;99996.09;;;9.69;100.00
16016;BME280;8112;53.592;10.184;2023-03-26T10:22:47;99998.75;;;9.29;100.00
16016;BME280;8112;53.592;10.184;2023-03-26T10:28:01;99999.94;;;9.50;100.00
16016;BME280;8112;53.592;10.184;2023-03-26T10:33:24;99985.41;;;11.23;100.00
16016;BME280;8112;53.592;10.184;2023-03-26T10:38:45;99980.69;;;11.15;100.00
16016;BME280;8112;53.592;10.184;2023-03-26T10:44:08;99987.88;;;10.38;100.00
16016;BME280;8112;53.592;10.184;2023-03-26T10:49:32;99999.34;;;9.19;100.00
16016;BME280;8112;53.592;10.184;2023-03-26T10:54:47;99994.13;;;9.98;100.00
16016;BME280;8112;53.592;10.184;2023-03-26T10:59:53;99990.31;;;11.99;100.00
16016;BME280;8112;53.592;10.184;2023-03-26T11:05:08;99985.66;;;12.60;100.00
16016;BME280;8112;53.592;10.184;2023-03-26T11:10:27;99980.31;;;13.26;96.73
16016;BME280;8112;53.592;10.184;2023-03-26T11:15:35;99984.03;;;12.91;87.34
16016;BME280;8112;53.592;10.184;2023-03-26T11:21:03;99993.00;;;12.22;85.76
16016;BME280;8112;53.592;10.184;2023-03-26T11:26:12;99993.28;;;10.87;100.00
16016;BME280;8112;53.592;10.184;2023-03-26T11:31:31;99989.88;;;11.34;96.59
16016;BME280;8112;53.592;10.184;2023-03-26T11:36:40;99985.91;;;12.57;91.15
16016;BME280;8112;53.592;10.184;2023-03-26T11:41:45;99979.72;;;13.56;82.60
16016;BME280;8112;53.592;10.184;2023-03-26T11:47:07;99974.03;;;13.81;75.91
16016;BME280;8112;53.592;10.184;2023-03-26T11:52:15;99971.31;;;13.50;72.75
16016;BME280;8112;53.592;10.184;2023-03-26T11:57:20;99965.53;;;13.88;70.20
16016;BME280;8112;53.592;10.184;2023-03-26T12:02:25;99963.25;;;14.76;64.30
16016;BME280;8112;53.592;10.184;2023-03-26T12:07:32;99962.91;;;13.88;64.21
16016;BME280;8112;53.592;10.184;2023-03-26T12:12:37;99962.72;;;13.79;66.45
16016;BME280;8112;53.592;10.184;2023-03-26T12:17:39;99958.22;;;14.01;67.48
16016;BME280;8112;53.592;10.184;2023-03-26T12:22:43;99954.34;;;14.87;64.39
16016;BME280;8112;53.592;10.184;2023-03-26T12:27:51;99957.56;;;15.30;72.88
16016;BME280;8112;53.592;10.184;2023-03-26T12:32:59;99963.34;;;15.93;59.78
16016;BME280;8112;53.592;10.184;2023-03-26T12:44:52;99957.69;;;14.07;58.57
16016;BME280;8112;53.592;10.184;2023-03-26T12:49:56;99962.81;;;13.47;57.89
16016;BME280;8112;53.592;10.184;2023-03-26T12:55:07;99958.66;;;14.06;59.31
16016;BME280;8112;53.592;10.184;2023-03-26T13:00:30;99963.59;;;13.90;59.72
16016;BME280;8112;53.592;10.184;2023-03-26T13:05:55;99950.41;;;14.31;58.98
16016;BME280;8112;53.592;10.184;2023-03-26T13:11:04;99946.50;;;14.95;56.30
16016;BME280;8112;53.592;10.184;2023-03-26T13:16:15;99951.81;;;14.76;55.16
16016;BME280;8112;53.592;10.184;2023-03-26T13:21:30;99948.75;;;15.10;57.99
16016;BME280;8112;53.592;10.184;2023-03-26T13:26:45;99944.44;;;14.99;55.75
16016;BME280;8112;53.592;10.184;2023-03-26T13:31:59;99946.94;;;15.40;56.42
16016;BME280;8112;53.592;10.184;2023-03-26T13:37:09;99946.50;;;13.94;55.60
16016;BME280;8112;53.592;10.184;2023-03-26T13:42:24;99950.03;;;13.73;56.61
16016;BME280;8112;53.592;10.184;2023-03-26T13:47:36;99946.97;;;14.50;57.08
16016;BME280;8112;53.592;10.184;2023-03-26T13:52:42;99941.63;;;15.40;52.94
16016;BME280;8112;53.592;10.184;2023-03-26T13:57:48;99938.72;;;15.14;52.87
16016;BME280;8112;53.592;10.184;2023-03-26T14:02:57;99943.38;;;13.89;54.97
16016;BME280;8112;53.592;10.184;2023-03-26T14:08:04;99945.38;;;13.33;56.68
16016;BME280;8112;53.592;10.184;2023-03-26T14:13:21;99947.53;;;12.74;56.02
16016;BME280;8112;53.592;10.184;2023-03-26T14:18:32;99952.88;;;11.94;59.34
16016;BME280;8112;53.592;10.184;2023-03-26T14:29:28;99953.38;;;12.10;61.38
16016;BME280;8112;53.592;10.184;2023-03-26T14:34:42;99944.97;;;12.17;64.89
16016;BME280;8112;53.592;10.184;2023-03-26T14:39:59;99952.31;;;11.54;67.73
16016;BME280;8112;53.592;10.184;2023-03-26T14:45:37;99957.31;;;11.46;71.43
16016;BME280;8112;53.592;10.184;2023-03-26T14:50:51;99958.25;;;11.81;71.46
16016;BME280;8112;53.592;10.184;2023-03-26T15:01:49;99956.66;;;11.55;71.25
16016;BME280;8112;53.592;10.184;2023-03-26T15:07:22;99957.03;;;11.62;72.12
16016;BME280;8112;53.592;10.184;2023-03-26T15:12:38;99953.19;;;11.78;77.90
16016;BME280;8112;53.592;10.184;2023-03-26T15:18:12;99956.38;;;11.47;74.20
16016;BME280;8112;53.592;10.184;2023-03-26T15:35:15;99968.47;;;11.14;74.94
16016;BME280;8112;53.592;10.184;2023-03-26T15:40:45;99969.91;;;9.93;80.17
16016;BME280;8112;53.592;10.184;2023-03-26T15:45:53;99972.75;;;9.90;86.73
16016;BME280;8112;53.592;10.184;2023-03-26T15:51:22;99976.75;;;9.83;89.49
16016;BME280;8112;53.592;10.184;2023-03-26T16:02:00;99979.09;;;10.01;86.33
16016;BME280;8112;53.592;10.184;2023-03-26T16:07:28;99982.72;;;10.24;83.89
16016;BME280;8112;53.592;10.184;2023-03-26T16:12:46;99986.09;;;10.52;84.77
16016;BME280;8112;53.592;10.184;2023-03-26T16:18:18;99989.50;;;9.89;86.67
16016;BME280;8112;53.592;10.184;2023-03-26T16:23:29;99997.53;;;9.47;92.92
16016;BME280;8112;53.592;10.184;2023-03-26T16:28:33;100002.53;;;9.24;94.28
16016;BME280;8112;53.592;10.184;2023-03-26T16:33:37;100008.91;;;8.93;97.02
16016;BME280;8112;53.592;10.184;2023-03-26T16:38:46;100013.94;;;8.68;99.87
16016;BME280;8112;53.592;10.184;2023-03-26T16:44:05;100008.59;;;8.41;100.00
16016;BME280;8112;53.592;10.184;2023-03-26T16:49:26;100019.44;;;8.49;100.00
16016;BME280;8112;53.592;10.184;2023-03-26T16:54:40;100021.44;;;8.46;100.00
16016;BME280;8112;53.592;10.184;2023-03-26T16:59:54;100030.91;;;8.34;100.00
16016;BME280;8112;53.592;10.184;2023-03-26T17:05:07;100043.66;;;8.25;100.00
16016;BME280;8112;53.592;10.184;2023-03-26T17:10:21;100044.94;;;8.04;100.00
16016;BME280;8112;53.592;10.184;2023-03-26T17:15:39;100045.31;;;7.97;100.00
16016;BME280;8112;53.592;10.184;2023-03-26T17:20:52;100058.44;;;7.97;100.00
16016;BME280;8112;53.592;10.184;2023-03-26T17:26:04;100057.56;;;7.97;100.00
16016;BME280;8112;53.592;10.184;2023-03-26T17:31:22;100061.69;;;8.01;100.00
16016;BME280;8112;53.592;10.184;2023-03-26T17:36:39;100070.13;;;7.92;100.00
16016;BME280;8112;53.592;10.184;2023-03-26T17:41:50;100080.63;;;7.92;100.00
16016;BME280;8112;53.592;10.184;2023-03-26T17:46:55;100089.88;;;7.83;100.00
16016;BME280;8112;53.592;10.184;2023-03-26T17:52:01;100091.13;;;7.61;100.00
16016;BME280;8112;53.592;10.184;2023-03-26T17:57:08;100102.34;;;7.47;100.00
16016;BME280;8112;53.592;10.184;2023-03-26T18:02:14;100101.19;;;7.37;100.00
16016;BME280;8112;53.592;10.184;2023-03-26T18:13:07;100121.16;;;7.07;100.00
16016;BME280;8112;53.592;10.184;2023-03-26T18:18:18;100124.59;;;6.92;100.00
16016;BME280;8112;53.592;10.184;2023-03-26T18:23:25;100130.47;;;6.79;100.00
16016;BME280;8112;53.592;10.184;2023-03-26T18:28:33;100135.53;;;6.66;100.00
16016;BME280;8112;53.592;10.184;2023-03-26T18:33:43;100152.16;;;6.65;100.00
16016;BME280;8112;53.592;10.184;2023-03-26T18:38:46;100157.47;;;6.64;100.00
16016;BME280;8112;53.592;10.184;2023-03-26T18:43:49;100162.63;;;6.65;100.00
16016;BME280;8112;53.592;10.184;2023-03-26T18:48:50;100166.88;;;6.68;100.00
16016;BME280;8112;53.592;10.184;2023-03-26T18:53:59;100168.78;;;6.64;100.00
16016;BME280;8112;53.592;10.184;2023-03-26T18:59:05;100176.16;;;6.74;100.00
16016;BME280;8112;53.592;10.184;2023-03-26T19:04:09;100182.41;;;6.71;100.00
16016;BME280;8112;53.592;10.184;2023-03-26T19:09:13;100197.44;;;6.67;100.00
16016;BME280;8112;53.592;10.184;2023-03-26T19:14:18;100201.13;;;6.63;100.00
16016;BME280;8112;53.592;10.184;2023-03-26T19:19:24;100211.91;;;6.57;100.00
16016;BME280;8112;53.592;10.184;2023-03-26T19:24:28;100214.41;;;6.60;100.00
16016;BME280;8112;53.592;10.184;2023-03-26T19:29:31;100212.94;;;6.54;100.00
16016;BME280;8112;53.592;10.184;2023-03-26T19:34:37;100227.59;;;6.39;100.00
16016;BME280;8112;53.592;10.184;2023-03-26T19:39:42;100229.94;;;6.28;100.00
16016;BME280;8112;53.592;10.184;2023-03-26T19:44:44;100242.53;;;6.20;100.00
16016;BME280;8112;53.592;10.184;2023-03-26T19:49:52;100244.13;;;6.05;100.00
16016;BME280;8112;53.592;10.184;2023-03-26T19:55:00;100249.38;;;5.85;100.00
16016;BME280;8112;53.592;10.184;2023-03-26T20:00:03;100256.22;;;5.69;100.00
16016;BME280;8112;53.592;10.184;2023-03-26T20:05:17;100258.78;;;5.51;100.00
16016;BME280;8112;53.592;10.184;2023-03-26T20:10:23;100267.53;;;5.30;100.00
16016;BME280;8112;53.592;10.184;2023-03-26T20:15:27;100274.88;;;5.21;100.00
16016;BME280;8112;53.592;10.184;2023-03-26T20:20:31;100287.03;;;5.22;100.00
16016;BME280;8112;53.592;10.184;2023-03-26T20:25:35;100287.50;;;5.11;100.00
16016;BME280;8112;53.592;10.184;2023-03-26T20:30:40;100284.59;;;4.98;100.00
16016;BME280;8112;53.592;10.184;2023-03-26T20:35:42;100296.19;;;4.91;100.00
16016;BME280;8112;53.592;10.184;2023-03-26T20:40:46;100306.75;;;4.88;100.00
16016;BME280;8112;53.592;10.184;2023-03-26T20:45:48;100319.66;;;4.70;100.00
16016;BME280;8112;53.592;10.184;2023-03-26T20:50:50;100323.91;;;4.52;100.00
16016;BME280;8112;53.592;10.184;2023-03-26T20:55:53;100332.94;;;4.44;100.00
16016;BME280;8112;53.592;10.184;2023-03-26T21:00:59;100324.03;;;4.27;100.00
16016;BME280;8112;53.592;10.184;2023-03-26T21:06:02;100338.50;;;4.12;100.00
16016;BME280;8112;53.592;10.184;2023-03-26T21:11:19;100336.28;;;4.01;100.00
16016;BME280;8112;53.592;10.184;2023-03-26T21:16:23;100348.78;;;3.93;100.00
16016;BME280;8112;53.592;10.184;2023-03-26T21:21:37;100345.84;;;3.78;100.00
16016;BME280;8112;53.592;10.184;2023-03-26T21:26:49;100365.41;;;3.65;100.00
16016;BME280;8112;53.592;10.184;2023-03-26T21:31:54;100372.91;;;3.50;100.00
16016;BME280;8112;53.592;10.184;2023-03-26T21:36:57;100371.56;;;3.38;100.00
16016;BME280;8112;53.592;10.184;2023-03-26T21:42:01;100378.00;;;3.28;100.00
16016;BME280;8112;53.592;10.184;2023-03-26T21:47:03;100380.75;;;3.23;100.00
16016;BME280;8112;53.592;10.184;2023-03-26T21:52:10;100390.06;;;3.05;100.00
16016;BME280;8112;53.592;10.184;2023-03-26T22:03:00;100412.19;;;2.92;100.00
16016;BME280;8112;53.592;10.184;2023-03-26T22:08:15;100423.53;;;2.89;100.00
16016;BME280;8112;53.592;10.184;2023-03-26T22:13:24;100428.25;;;2.78;100.00
16016;BME280;8112;53.592;10.184;2023-03-26T22:18:26;100441.63;;;2.65;100.00
16016;BME280;8112;53.592;10.184;2023-03-26T22:23:29;100439.03;;;2.65;100.00
16016;BME280;8112;53.592;10.184;2023-03-26T22:28:38;100447.03;;;2.59;100.00
16016;BME280;8112;53.592;10.184;2023-03-26T22:33:42;100450.97;;;2.42;100.00
16016;BME280;8112;53.592;10.184;2023-03-26T22:38:44;100464.78;;;2.45;100.00
16016;BME280;8112;53.592;10.184;2023-03-26T22:43:54;100466.69;;;2.39;100.00
16016;BME280;8112;53.592;10.184;2023-03-26T22:48:57;100481.75;;;2.26;100.00
16016;BME280;8112;53.592;10.184;2023-03-26T22:53:59;100497.66;;;2.16;100.00
16016;BME280;8112;53.592;10.184;2023-03-26T22:59:03;100495.94;;;2.16;100.00
16016;BME280;8112;53.592;10.184;2023-03-26T23:04:04;100502.22;;;2.07;100.00
16016;BME280;8112;53.592;10.184;2023-03-26T23:09:26;100514.34;;;2.08;100.00
16016;BME280;8112;53.592;10.184;2023-03-26T23:14:29;100513.75;;;1.97;100.00
16016;BME280;8112;53.592;10.184;2023-03-26T23:19:31;100517.38;;;1.91;100.00
16016;BME280;8112;53.592;10.184;2023-03-26T23:24:34;100523.25;;;1.98;100.00
16016;BME280;8112;53.592;10.184;2023-03-26T23:29:44;100532.53;;;1.75;100.00
16016;BME280;8112;53.592;10.184;2023-03-26T23:34:47;100537.88;;;1.69;100.00
16016;BME280;8112;53.592;10.184;2023-03-26T23:39:49;100543.28;;;1.60;100.00
16016;BME280;8112;53.592;10.184;2023-03-26T23:44:52;100552.03;;;1.57;100.00
16016;BME280;8112;53.592;10.184;2023-03-26T23:49:56;100556.38;;;1.55;100.00
16016;BME280;8112;53.592;10.184;2023-03-26T23:54:58;100557.97;;;1.62;100.00
